Toccoa, Georgia
Current Conditions -  °F | °C
As of 8:15 PM on Sunday 21 Dec 2014 (Local Time) from KTOC Reporting Station
Overcast Overcast  
Wind Chill: 46°   Ceiling: 2800
Heat Index: 48°   Visibility: 10mi
Dew Point: 42°   Wind: 5mph
Humidity: 80%   Direction: 70°ENE
Pressure: 30.14"   Gusts: NA
Location:  34.58°N, 83.33°W
Report Text: KTOC 220115Z AUTO 07004KT 10SM SCT022 OVC028 09/06 A3014 RMK AO2 T00880056
Loading
Personal Weather Stations






























Interactive Weather Map New forecast layout! Learn more

10-Day Weather Forecast

Advertisements
Track Severe Weather on mobile